nws-alerts: Checking more than four warning/county codes can delay the loading of your pages. You should use a cron job to get the data.

Current News

By popular demand, I have restored the previous template "type" back to the website. This is a major work in progress... So don't complain when something is broken.

I did put a link to the earlier WeeWX version that presents much more data at the top right corner of the page.
-- Jeffrey

Current Weather Cam

Current Radar Loop

Nearby METAR Reports

 

KSJC - San Jose, California, USA
Distance from station: NE 9mi, 14km
Updated: Fri, 25-May-2018 12:53am CDT
Overcast
Overcast
 Wind from WNW
Wind: WNW 7 mph , 11 km/h
Temperature: 57°F , 14°C
Dew Point: 48°F , 9°C
Humidity: 72%
Barometer: 30.07 inHg , 1018.3 hPa
Clouds: Overcast
Visibility: 10 miles , 16 km
Cloud details: Overcast 4000 ft
2018/05/25 05:53 KSJC 250553Z 30006KT 10SM OVC040 14/09 A3007 RMK AO2 SLP182 T01440089 10178 20144 50007
KNUQ - Moffett Nas/Mtn, California, USA
Distance from station: N 9mi, 14km
Updated: Fri, 25-May-2018 12:56am CDT
Overcast
Overcast
 Wind from WNW
Wind: WNW 6 mph , 9 km/h
Temperature: 57°F , 14°C
Dew Point: 46°F , 8°C
Humidity: 67%
Barometer: 30.08 inHg , 1018.6 hPa
Clouds: Overcast
Visibility: 10 miles , 16 km
Cloud details: Overcast 4300 ft
2018/05/25 05:56 KNUQ 250556Z 30005KT 10SM OVC043 14/08 A3008 RMK AO2 SLP187 T01390083 10167 20133 51006
 
KPAO - Palo Alto, California, USA
Distance from station: NNW 14mi, 23km
Updated: Thu, 24-May-2018 10:47pm CDT
NOT Current
Mostly cloudy
Mostly cloudy
 Wind from W
Wind: W 8 mph , 13 km/h
Temperature: 57°F , 14°C
Dew Point: 48°F , 9°C
Humidity: 72%
Barometer: 30.07 inHg , 1018.3 hPa
Clouds: Mostly cloudy
Visibility: 10 miles , 16 km
Cloud details: Mostly cloudy 3500 ft
2018/05/25 03:47 KPAO 250347Z 27007KT 10SM BKN035 14/09 A3007
KRHV - San Jose/Reid, California, USA
Distance from station: ENE 12mi, 19km
Updated: Thu, 24-May-2018 11:57pm CDT
NOT Current
Mostly cloudy
Mostly cloudy
 Wind from N
Wind: N 12 mph , 19 km/h
Temperature: 57°F , 14°C
Dew Point: 48°F , 9°C
Humidity: 72%
Barometer: 30.05 inHg , 1017.6 hPa
Clouds: Mostly cloudy
Visibility: 10 miles , 16 km
Cloud details: Mostly cloudy 3500 ft
2018/05/25 04:57 KRHV 250457Z 35010KT 10SM BKN035 14/09 A3005
 
KOAK - Oakland, California, USA
Distance from station: NNW 31mi, 50km
Updated: Fri, 25-May-2018 12:53am CDT
Mostly cloudy
Mostly cloudy
 Wind from WSW
Wind: WSW 10 mph , 17 km/h
Temperature: 55°F , 13°C
Dew Point: 50°F , 10°C
Humidity: 82%
Barometer: 30.07 inHg , 1018.3 hPa
Clouds: Mostly cloudy
Visibility: 7 miles , 11 km
Cloud details: Few Clouds 1600 ft
Mostly cloudy 2800 ft
Mostly cloudy 4100 ft
2018/05/25 05:53 KOAK 250553Z 25009KT 7SM FEW016 BKN028 BKN041 13/10 A3007 RMK AO2 SLP182 T01330100 10156 20133 50001
KSQL - San Carlos Airpo, California, USA
Distance from station: NW 21mi, 34km
Updated: Fri, 25-May-2018 1:35am CDT
Light rain, Overcast
Light rain, Overcast
 Wind from W
Wind: W 5 mph , 7 km/h
Temperature: 55°F , 13°C
Dew Point: 50°F , 10°C
Humidity: 82%
Barometer: 30.06 inHg , 1017.9 hPa
Summary: Light rain
Clouds: Overcast
Visibility: 10 miles , 16 km
Cloud details: Mostly cloudy 2400 ft
Mostly cloudy 7000 ft
Overcast 9000 ft
2018/05/25 06:35 KSQL 250635Z AUTO 28004KT 10SM -RA BKN024 BKN070 OVC090 13/10 A3006 RMK AO2
 
KSFO - San Francisco, California, USA
Distance from station: NW 30mi, 49km
Updated: Fri, 25-May-2018 12:56am CDT
Mostly cloudy
Mostly cloudy
 Wind from SW
Wind: SW 5 mph , 7 km/h
Temperature: 57°F , 14°C
Dew Point: 46°F , 8°C
Humidity: 67%
Barometer: 30.07 inHg , 1018.3 hPa
Clouds: Mostly cloudy
Visibility: 10 miles , 16 km
Cloud details: Few Clouds 1000 ft
Mostly cloudy 2100 ft
Mostly cloudy 2500 ft
2018/05/25 05:56 KSFO 250556Z 22004KT 10SM FEW010 BKN021 BKN025 14/08 A3007 RMK AO2 SLP181 T01390083 10167 20139 50002
KE16 - San Martin, California, USA
Distance from station: ESE 27mi, 43km
Updated: Fri, 25-May-2018 1:15am CDT
Overcast
Overcast
 Wind from SSW
Wind: SSW 6 mph , 9 km/h
Temperature: 57°F , 14°C
Dew Point: 46°F , 8°C
Humidity: 67%
Barometer: 30.08 inHg , 1018.6 hPa
Clouds: Overcast
Visibility: 10 miles , 16 km
Cloud details: Overcast 3400 ft
2018/05/25 06:15 KE16 250615Z AUTO 20005KT 10SM OVC034 14/08 A3008 RMK AO2
 
KWVI - Watsonville, California, USA
Distance from station: SSE 27mi, 44km
Updated: Fri, 25-May-2018 12:53am CDT
Overcast
Overcast
 Wind from WSW
Wind: WSW 3 mph , 6 km/h
Temperature: 54°F , 12°C
Dew Point: 50°F , 10°C
Humidity: 88%
Barometer: 30.08 inHg , 1018.6 hPa
Clouds: Overcast
Visibility: 10 miles , 16 km
Cloud details: Overcast 3600 ft
2018/05/25 05:53 KWVI 250553Z AUTO 25003KT 10SM OVC036 12/10 A3008 RMK AO2 RAB09E36 SLP187 P0001 60001 T01220100 10144 20117 50005
KHAF - Half Moon Bay, California, USA
Distance from station: WNW 31mi, 50km
Updated: Fri, 25-May-2018 1:35am CDT
Overcast
Overcast
 Wind from calm
Wind: Calm
Temperature: 54°F , 12°C
Dew Point: 50°F , 10°C
Humidity: 88%
Barometer: 30.07 inHg , 1018.3 hPa
Clouds: Overcast
Visibility: 8 miles , 13 km
Cloud details: Few Clouds 900 ft
Overcast 2500 ft
2018/05/25 06:35 KHAF 250635Z AUTO 00000KT 8SM FEW009 OVC025 12/10 A3007 RMK AO2
 
KHWD - Hayward, California, USA
Distance from station: N 28mi, 44km
Updated: Fri, 25-May-2018 12:54am CDT
Overcast
Overcast
 Wind from W
Wind: W 8 mph , 13 km/h
Temperature: 57°F , 14°C
Dew Point: 48°F , 9°C
Humidity: 72%
Barometer: 30.07 inHg , 1018.3 hPa
Clouds: Overcast
Visibility: 10 miles , 16 km
Cloud details: Few Clouds 1700 ft
Partly cloudy 2300 ft
Overcast 3700 ft
2018/05/25 05:54 KHWD 250554Z AUTO 27007KT 10SM FEW017 SCT023 OVC037 14/09 A3007 RMK AO2 SLP191 T01390089 10156 20139 50002
KLVK - Livermore, California, USA
Distance from station: NNE 31mi, 51km
Updated: Fri, 25-May-2018 12:53am CDT
Overcast
Overcast
 Wind from W
Wind: W 10 mph , 17 km/h
Temperature: 54°F , 12°C
Dew Point: 52°F , 11°C
Humidity: 94%
Barometer: 30.05 inHg , 1017.6 hPa
Clouds: Overcast
Visibility: 10 miles , 16 km
Cloud details: Few Clouds 2800 ft
Overcast 3400 ft
2018/05/25 05:53 KLVK 250553Z AUTO 27009KT 10SM FEW028 OVC034 12/11 A3005 RMK AO2 SLP175 T01220111 10156 20122 50002